Time;durP1;ratioP1;P1;durP2;ratioP2;P2;SDS_P1;SDS_P2;PMS_P1;PMS_P2;Temp;Humidity;BMP_temperature;BMP_pressure;BME280_temperature;BME280_humidity;BME280_pressure;Samples;Min_cycle;Max_cycle;Signal;HPM_P1;HPM_P2
2021/04/11 00:01:01;;;;;;;23.85;11.90;;;;;;;7.67;41.70;99914.69;1813006;79;21274;-61
2021/04/11 00:03:30;;;;;;;19.00;12.07;;;;;;;7.63;41.72;99925.66;1812687;78;21265;-61
2021/04/11 00:06:00;;;;;;;24.12;12.82;;;;;;;7.60;41.77;99928.98;1812594;79;21112;-60
2021/04/11 00:08:29;;;;;;;23.50;14.25;;;;;;;7.58;41.79;99925.09;1813046;79;21104;-60
2021/04/11 00:11:01;;;;;;;22.93;14.25;;;;;;;7.54;41.87;99929.62;1812906;79;21107;-61
2021/04/11 00:13:36;;;;;;;21.63;12.10;;;;;;;7.50;42.01;99938.02;1812946;78;21289;-61
2021/04/11 00:16:07;;;;;;;35.98;12.53;;;;;;;7.45;42.12;99934.81;1812645;78;21120;-60
2021/04/11 00:18:35;;;;;;;28.52;13.90;;;;;;;7.40;42.26;99944.89;1812691;79;21178;-60
2021/04/11 00:21:05;;;;;;;24.00;13.25;;;;;;;7.36;42.35;99947.77;1812917;79;21261;-61
2021/04/11 00:23:34;;;;;;;26.90;14.05;;;;;;;7.34;42.38;99953.66;1812875;78;21143;-61
2021/04/11 00:26:03;;;;;;;24.23;13.13;;;;;;;7.28;42.52;99942.73;1812750;79;21147;-60
2021/04/11 00:28:31;;;;;;;22.67;13.62;;;;;;;7.25;42.58;99949.05;1812885;79;21131;-61
2021/04/11 00:31:00;;;;;;;23.55;13.60;;;;;;;7.23;42.74;99949.80;1812681;78;21127;-60
2021/04/11 00:33:35;;;;;;;22.07;13.35;;;;;;;7.17;42.94;99953.88;1812705;79;21300;-61
2021/04/11 00:36:17;;;;;;;25.00;14.47;;;;;;;7.12;42.94;99947.67;1812958;79;21566;-62
2021/04/11 00:38:46;;;;;;;25.72;13.50;;;;;;;7.09;43.14;99943.67;1813186;79;21135;-61
2021/04/11 00:41:33;;;;;;;25.45;13.58;;;;;;;7.05;43.23;99944.38;1812943;78;21155;-61
2021/04/11 00:44:05;;;;;;;23.00;13.90;;;;;;;7.02;43.25;99954.53;1812976;78;21498;-60
2021/04/11 00:46:55;;;;;;;24.98;14.13;;;;;;;6.99;43.36;99958.64;1813024;79;21107;-62
2021/04/11 00:49:47;;;;;;;27.82;14.50;;;;;;;6.95;43.40;99961.09;1812757;78;21123;-61
2021/04/11 00:52:17;;;;;;;30.77;14.75;;;;;;;6.93;43.53;99959.27;1812747;78;21151;-60
2021/04/11 00:54:46;;;;;;;;;;;;;;;6.90;43.59;99957.88;1815569;78;21159;-61
2021/04/11 00:57:15;;;;;;;26.10;13.68;;;;;;;6.89;43.59;99958.66;1812700;78;20132;-61
2021/04/11 00:59:43;;;;;;;29.90;14.68;;;;;;;6.86;43.66;99954.69;1812769;79;21288;-60
2021/04/11 01:02:11;;;;;;;26.60;13.93;;;;;;;6.85;43.72;99955.52;1812869;78;21155;-60
2021/04/11 01:04:39;;;;;;;27.07;14.95;;;;;;;6.83;43.79;99963.14;1812856;79;21158;-61
2021/04/11 01:07:12;;;;;;;30.25;14.28;;;;;;;6.82;43.87;99957.93;1812860;79;21139;-60
2021/04/11 01:09:46;;;;;;;26.40;14.50;;;;;;;6.78;43.94;99956.94;1812766;78;21572;-61
2021/04/11 01:12:19;;;;;;;23.75;14.03;;;;;;;6.74;44.01;99964.92;1812911;79;21701;-61
2021/04/11 01:14:50;;;;;;;28.50;15.28;;;;;;;6.72;44.05;99961.41;1812670;78;21095;-61
2021/04/11 01:17:22;;;;;;;31.52;15.03;;;;;;;6.68;44.16;99962.08;1812687;78;21292;-61
2021/04/11 01:19:53;;;;;;;26.10;14.43;;;;;;;6.66;44.18;99964.98;1812855;78;21562;-61
2021/04/11 01:22:50;;;;;;;25.10;14.03;;;;;;;6.64;44.30;99973.42;1812939;78;21123;-61
2021/04/11 01:25:26;;;;;;;26.05;14.53;;;;;;;6.61;44.43;99966.88;1813008;79;21151;-60
2021/04/11 01:27:56;;;;;;;29.02;14.53;;;;;;;6.56;44.53;99969.25;1812544;78;21249;-61
2021/04/11 01:30:37;;;;;;;29.98;15.68;;;;;;;6.54;44.53;99967.05;1796330;79;21157;-61
2021/04/11 01:33:15;;;;;;;26.87;14.87;;;;;;;6.51;44.69;99965.61;1821827;78;21103;-60
2021/04/11 01:35:44;;;;;;;27.02;14.18;;;;;;;6.49;44.70;99963.41;1817271;78;21279;-59
2021/04/11 01:38:14;;;;;;;26.27;14.90;;;;;;;6.46;44.79;99958.13;1775427;79;21209;-60
2021/04/11 01:41:14;;;;;;;25.80;14.78;;;;;;;6.43;44.81;99958.00;1817524;78;21288;-59
2021/04/11 01:43:45;;;;;;;27.98;14.20;;;;;;;6.42;44.85;99960.09;1802969;78;21107;-61
2021/04/11 01:46:14;;;;;;;29.20;15.80;;;;;;;6.41;44.89;99955.77;1817658;78;21264;-61
2021/04/11 01:48:46;;;;;;;24.92;15.28;;;;;;;6.38;44.96;99956.51;1817206;78;21117;-60
2021/04/11 01:51:19;;;;;;;28.35;15.43;;;;;;;6.37;44.95;99961.17;1817068;77;21252;-58
2021/04/11 01:53:49;;;;;;;35.68;14.90;;;;;;;6.35;45.02;99962.79;1826510;78;21138;-59
2021/04/11 01:56:18;;;;;;;27.00;15.25;;;;;;;6.34;45.04;99960.17;1812619;78;21150;-60
2021/04/11 01:58:49;;;;;;;29.20;15.13;;;;;;;6.33;45.05;99964.81;1821948;78;21297;-59
2021/04/11 02:01:26;;;;;;;28.60;14.93;;;;;;;6.32;45.10;99961.79;1813659;78;21581;-64
2021/04/11 02:04:00;;;;;;;25.70;13.85;;;;;;;6.32;44.97;99962.66;1818008;78;21107;-59
2021/04/11 02:06:32;;;;;;;25.27;13.70;;;;;;;6.32;44.99;99968.20;1812635;79;21139;-59
2021/04/11 02:09:16;;;;;;;24.67;14.23;;;;;;;6.32;44.96;99964.35;1816956;77;21118;-59
2021/04/11 02:11:49;;;;;;;23.83;13.88;;;;;;;6.33;45.00;99967.38;1819843;78;21158;-59
2021/04/11 02:14:19;;;;;;;25.45;14.50;;;;;;;6.32;44.99;99966.50;1812685;79;21573;-59
2021/04/11 02:16:48;;;;;;;24.20;14.35;;;;;;;6.30;45.03;99968.98;1817004;78;21736;-59
2021/04/11 02:19:22;;;;;;;27.70;15.23;;;;;;;6.30;45.07;99974.12;1822004;78;21301;-59
2021/04/11 02:21:59;;;;;;;28.17;15.40;;;;;;;6.29;45.18;99976.22;1812598;79;21158;-61
2021/04/11 02:24:30;;;;;;;28.60;14.68;;;;;;;6.29;45.16;99974.06;1821790;78;21159;-60
2021/04/11 02:26:59;;;;;;;27.10;14.75;;;;;;;6.28;45.22;99975.77;1813744;78;21130;-61
2021/04/11 02:29:28;;;;;;;27.62;14.28;;;;;;;6.26;45.23;99974.81;1759216;81;21398;-61
2021/04/11 02:31:59;;;;;;;31.68;15.58;;;;;;;6.25;45.23;99979.44;1819007;78;21139;-61
2021/04/11 02:34:30;;;;;;;21.68;13.28;;;;;;;6.23;45.27;99972.50;1817214;78;21155;-60
2021/04/11 02:37:07;;;;;;;;;;;;;;;6.23;45.29;99978.52;1824639;78;21696;-59
2021/04/11 02:39:41;;;;;;;26.20;13.40;;;;;;;6.21;45.31;99985.27;1817143;78;20151;-60
2021/04/11 02:42:17;;;;;;;26.10;14.63;;;;;;;6.18;45.38;99986.41;1805551;78;21517;-60
2021/04/11 02:44:51;;;;;;;26.42;14.40;;;;;;;6.18;45.43;99992.82;1817123;78;21115;-59
2021/04/11 02:47:21;;;;;;;32.35;14.87;;;;;;;6.18;45.46;99990.63;1817147;78;21304;-60
2021/04/11 02:49:52;;;;;;;24.37;14.73;;;;;;;6.18;45.52;100006.92;1812743;78;21257;-59
2021/04/11 02:52:36;;;;;;;25.17;13.83;;;;;;;6.15;45.65;100002.04;1821769;78;21157;-60
2021/04/11 02:55:09;;;;;;;27.05;15.48;;;;;;;6.13;45.77;100003.27;1817205;78;21143;-59
2021/04/11 02:57:38;;;;;;;25.88;14.75;;;;;;;6.09;45.80;100007.77;1812660;78;21104;-60
2021/04/11 03:00:12;;;;;;;29.10;15.10;;;;;;;6.08;45.86;100006.90;1812813;79;21321;-60
2021/04/11 03:02:41;;;;;;;32.48;14.93;;;;;;;6.07;45.88;100010.25;1812850;78;21274;-61
2021/04/11 03:05:13;;;;;;;27.75;14.87;;;;;;;6.06;45.91;100016.61;1812838;79;21154;-60
2021/04/11 03:07:49;;;;;;;27.77;15.35;;;;;;;6.05;45.92;100008.02;1812866;79;21561;-61
2021/04/11 03:10:24;;;;;;;28.65;15.78;;;;;;;6.04;45.93;100010.53;1812501;78;21667;-59
2021/04/11 03:12:54;;;;;;;26.42;14.58;;;;;;;6.03;45.95;100013.87;1812916;79;21143;-60
2021/04/11 03:15:25;;;;;;;24.65;14.18;;;;;;;6.04;46.01;100011.81;1812841;78;22248;-61
2021/04/11 03:17:54;;;;;;;23.32;13.53;;;;;;;6.04;45.96;100011.39;1812802;79;21147;-60
2021/04/11 03:20:34;;;;;;;28.73;15.00;;;;;;;6.06;45.92;100017.89;1801641;79;21292;-61
2021/04/11 03:23:08;;;;;;;27.50;13.48;;;;;;;6.07;45.86;100018.34;1812641;78;21273;-60
2021/04/11 03:25:39;;;;;;;27.17;14.18;;;;;;;6.09;45.87;100024.42;1813101;78;21290;-60
2021/04/11 03:28:15;;;;;;;22.03;13.70;;;;;;;6.11;45.83;100029.22;1812979;79;21277;-61
2021/04/11 03:30:55;;;;;;;25.08;13.78;;;;;;;6.13;45.80;100030.18;1812708;78;21817;-61
2021/04/11 03:33:33;;;;;;;27.62;16.23;;;;;;;6.22;45.76;100033.14;1854670;76;28379;-61
2021/04/11 03:36:04;;;;;;;27.75;15.60;;;;;;;6.25;45.71;100040.09;1760455;80;21110;-60
2021/04/11 03:38:36;;;;;;;26.35;14.60;;;;;;;6.27;45.64;100047.05;1776949;81;21300;-61
2021/04/11 03:41:05;;;;;;;23.23;13.23;;;;;;;6.28;45.63;100042.41;1730883;81;21157;-59
2021/04/11 03:43:49;;;;;;;23.38;13.35;;;;;;;6.32;45.59;100047.26;1777008;81;21994;-60
2021/04/11 03:46:46;;;;;;;28.85;14.00;;;;;;;6.34;45.52;100053.75;1760549;81;21295;-60
2021/04/11 03:49:31;;;;;;;21.93;13.20;;;;;;;6.38;45.51;100056.91;1776763;81;21143;-60
2021/04/11 03:52:03;;;;;;;29.05;15.13;;;;;;;6.41;45.45;100058.32;1730685;81;21361;-59
2021/04/11 03:54:40;;;;;;;24.18;14.05;;;;;;;6.43;45.41;100062.70;1776747;80;21114;-61
2021/04/11 03:57:34;;;;;;;33.65;15.98;;;;;;;6.47;45.33;100059.89;1730567;81;21293;-60
2021/04/11 04:00:16;;;;;;;30.08;14.78;;;;;;;6.52;45.27;100067.39;1776890;80;21154;-61
2021/04/11 04:02:47;;;;;;;;;;;;;;;6.56;45.24;100070.95;1761924;81;21097;-59
2021/04/11 04:05:21;;;;;;;25.70;15.30;;;;;;;6.59;45.20;100077.50;1775614;80;20165;-59
2021/04/11 04:07:55;;;;;;;32.03;16.48;;;;;;;6.59;45.19;100074.55;1731979;81;21145;-60
2021/04/11 04:10:27;;;;;;;28.25;15.23;;;;;;;6.58;45.21;100077.91;1777089;81;21677;-59
2021/04/11 04:13:10;;;;;;;32.58;15.60;;;;;;;6.61;45.20;100083.17;1760519;80;21149;-59
2021/04/11 04:16:04;;;;;;;24.65;14.25;;;;;;;6.63;45.19;100075.55;1775933;81;21131;-60
2021/04/11 04:19:04;;;;;;;25.15;14.65;;;;;;;6.67;45.11;100083.46;1760131;81;21584;-62
2021/04/11 04:21:59;;;;;;;26.45;14.63;;;;;;;6.71;45.09;100081.89;1776458;81;21344;-62
2021/04/11 04:24:54;;;;;;;30.82;15.60;;;;;;;6.76;45.06;100095.80;1758324;81;21229;-61
2021/04/11 04:27:41;;;;;;;28.95;17.10;;;;;;;6.80;45.07;100099.41;1775085;81;21577;-61
2021/04/11 04:30:31;;;;;;;25.75;14.90;;;;;;;6.83;44.99;100100.81;1760553;81;21291;-60
2021/04/11 04:33:21;;;;;;;27.15;15.00;;;;;;;6.90;44.92;100094.73;1769265;81;21301;-61
2021/04/11 04:36:35;;;;;;;24.57;14.78;;;;;;;6.97;44.82;100097.14;1752260;82;21154;-61
2021/04/11 04:39:31;;;;;;;29.45;16.35;;;;;;;7.03;44.71;100098.71;1821706;78;21679;-61
2021/04/11 04:42:47;;;;;;;26.80;15.93;;;;;;;7.14;44.58;100100.45;1806669;78;21249;-62
2021/04/11 04:45:45;;;;;;;26.82;15.78;;;;;;;7.22;44.43;100099.49;1796758;79;21283;-60
2021/04/11 04:48:31;;;;;;;30.97;15.88;;;;;;;7.29;44.37;100098.95;1802393;79;21145;-60
2021/04/11 04:51:15;;;;;;;34.63;15.98;;;;;;;7.34;44.40;100108.59;1806275;79;21114;-61
2021/04/11 04:54:00;;;;;;;26.77;15.98;;;;;;;7.38;44.15;100107.92;1789329;79;21134;-61
2021/04/11 04:56:40;;;;;;;28.62;14.60;;;;;;;7.47;43.97;100110.39;1791569;79;21115;-59
2021/04/11 04:59:17;;;;;;;25.32;14.73;;;;;;;7.63;43.94;100114.47;1789507;79;21304;-62
2021/04/11 05:02:03;;;;;;;27.40;14.70;;;;;;;8.57;42.76;100112.63;1809518;79;21584;-62
2021/04/11 05:04:35;;;;;;;21.85;12.07;;;;;;;10.34;39.58;100119.53;1820942;78;21134;-60
2021/04/11 05:07:12;;;;;;;24.12;12.28;;;;;;;12.05;41.99;100117.27;1807812;78;21151;-59
2021/04/11 05:09:49;;;;;;;20.12;12.10;;;;;;;13.78;38.24;100123.78;1809832;78;21568;-60
2021/04/11 05:12:48;;;;;;;21.97;13.15;;;;;;;15.28;35.13;100132.78;1660671;85;21345;-61
2021/04/11 05:15:42;;;;;;;20.23;12.45;;;;;;;16.83;31.64;100132.71;1889654;76;22595;-61
2021/04/11 05:18:25;;;;;;;18.23;11.50;;;;;;;17.82;30.34;100138.63;1861038;77;21117;-60
2021/04/11 05:21:06;;;;;;;18.02;11.68;;;;;;;19.04;29.28;100137.95;1790880;80;21157;-61
2021/04/11 05:23:54;;;;;;;20.12;12.78;;;;;;;19.99;27.27;100149.58;1791417;80;21157;-61
2021/04/11 05:26:35;;;;;;;19.48;11.70;;;;;;;20.82;25.26;100153.59;1810369;78;21316;-61
2021/04/11 05:29:18;;;;;;;20.00;12.45;;;;;;;21.46;25.32;100155.39;1791271;80;21304;-62
2021/04/11 05:31:49;;;;;;;20.23;12.07;;;;;;;22.02;23.04;100166.36;1791427;80;21118;-61
2021/04/11 05:34:19;;;;;;;20.85;11.88;;;;;;;22.31;23.66;100163.25;1826922;78;21291;-61
2021/04/11 05:37:22;;;;;;;20.35;11.38;;;;;;;22.87;23.20;100164.38;1772584;80;21692;-62
2021/04/11 05:40:01;;;;;;;23.12;13.35;;;;;;;23.29;22.75;100170.56;1785412;80;21119;-62
2021/04/11 05:42:55;;;;;;;21.52;13.18;;;;;;;24.10;20.87;100173.55;1763029;81;21284;-61
2021/04/11 05:45:50;;;;;;;19.73;12.43;;;;;;;24.52;20.37;100179.95;1785428;80;21158;-62
2021/04/11 05:48:57;;;;;;;19.65;11.63;;;;;;;25.11;19.76;100179.61;1785294;80;21102;-60
2021/04/11 05:51:38;;;;;;;15.93;10.95;;;;;;;25.89;18.65;100172.86;1785502;80;21134;-62
2021/04/11 05:54:23;;;;;;;17.42;10.58;;;;;;;26.19;18.34;100179.77;1762816;80;21154;-60
2021/04/11 05:56:56;;;;;;;15.28;10.98;;;;;;;26.46;17.99;100178.86;1785340;80;21320;-63
2021/04/11 05:59:38;;;;;;;14.00;10.08;;;;;;;26.98;17.78;100184.98;1785297;80;21317;-62
2021/04/11 06:02:12;;;;;;;15.00;10.00;;;;;;;27.36;17.48;100187.53;1777893;80;21153;-62
2021/04/11 06:04:54;;;;;;;21.10;11.15;;;;;;;28.00;16.87;100193.41;1768666;80;21284;-63
2021/04/11 06:07:50;;;;;;;17.42;10.70;;;;;;;28.45;16.65;100204.38;1775246;80;21206;-63
2021/04/11 06:10:32;;;;;;;17.80;10.25;;;;;;;29.02;16.04;100203.17;1768722;79;21154;-62
2021/04/11 06:13:12;;;;;;;15.98;11.33;;;;;;;29.67;15.70;100213.52;1772239;80;21190;-65
2021/04/11 06:15:45;;;;;;;20.12;10.98;;;;;;;30.28;15.19;100211.40;1757724;81;21292;-63
2021/04/11 06:18:14;;;;;;;16.50;10.58;;;;;;;30.99;14.77;100218.41;1735452;82;21593;-62
2021/04/11 06:20:46;;;;;;;24.07;10.53;;;;;;;31.64;14.44;100221.08;1734875;82;21141;-62
2021/04/11 06:23:28;;;;;;;16.00;9.83;;;;;;;32.51;13.82;100224.53;1802537;79;21138;-63
2021/04/11 06:26:10;;;;;;;13.38;9.60;;;;;;;33.24;13.22;100229.02;1807694;79;21150;-62
2021/04/11 06:28:53;;;;;;;13.83;9.20;;;;;;;33.70;12.76;100227.43;1809203;79;21126;-63
2021/04/11 06:31:28;;;;;;;13.13;9.20;;;;;;;34.25;12.57;100229.16;1798985;77;21150;-63
2021/04/11 06:34:07;;;;;;;12.37;9.35;;;;;;;34.62;12.30;100236.54;1796651;79;21138;-62
2021/04/11 06:36:44;;;;;;;15.28;8.40;;;;;;;34.63;12.02;100240.92;1802624;79;21166;-64
2021/04/11 06:39:21;;;;;;;10.88;8.00;;;;;;;34.23;12.30;100241.80;1803462;78;21280;-62
2021/04/11 06:42:29;;;;;;;10.82;7.37;;;;;;;34.63;11.94;100239.58;1795790;79;21146;-62
2021/04/11 06:45:30;;;;;;;9.85;7.22;;;;;;;34.82;11.94;100239.19;1806962;79;21125;-61
2021/04/11 06:48:23;;;;;;;;;;;;;;;35.11;11.54;100247.42;1792477;79;21269;-62
2021/04/11 06:51:16;;;;;;;11.12;7.40;;;;;;;34.90;11.64;100239.50;1802111;79;20149;-62
2021/04/11 06:54:11;;;;;;;10.25;6.55;;;;;;;35.20;11.51;100250.77;1797386;79;21103;-63
2021/04/11 06:57:23;;;;;;;9.93;7.35;;;;;;;35.63;11.09;100249.54;1806547;78;21130;-61
2021/04/11 07:00:34;;;;;;;13.00;7.20;;;;;;;35.45;11.13;100261.10;1766865;79;21182;-64
2021/04/11 07:03:46;;;;;;;10.40;6.78;;;;;;;35.79;11.15;100260.86;1806667;79;21106;-64
2021/04/11 07:06:55;;;;;;;14.13;6.92;;;;;;;35.90;10.84;100256.52;1807088;77;21107;-61
2021/04/11 07:10:00;;;;;;;11.35;7.67;;;;;;;34.40;11.42;100258.55;1798088;79;21174;-62
2021/04/11 07:13:10;;;;;;;8.53;6.37;;;;;;;33.68;11.80;100257.45;1808079;79;21280;-63
2021/04/11 07:16:20;;;;;;;8.83;6.80;;;;;;;33.98;11.64;100261.30;1808753;79;21123;-65
2021/04/11 07:19:11;;;;;;;9.73;6.78;;;;;;;34.62;11.22;100259.33;1756943;81;21548;-63
2021/04/11 07:22:21;;;;;;;7.58;6.03;;;;;;;35.45;10.89;100263.79;1818499;77;21308;-63
2021/04/11 07:25:39;;;;;;;10.15;6.42;;;;;;;35.98;10.58;100265.74;1782182;79;21111;-62
2021/04/11 07:28:30;;;;;;;8.28;6.17;;;;;;;34.55;11.07;100269.58;1759802;81;21391;-63
2021/04/11 07:31:48;;;;;;;9.80;5.75;;;;;;;33.61;11.47;100260.14;1825877;78;21138;-60
2021/04/11 07:34:41;;;;;;;7.45;4.95;;;;;;;33.14;11.54;100261.31;1822187;77;21122;-63
2021/04/11 07:37:45;;;;;;;9.38;5.55;;;;;;;33.05;11.81;100267.63;1761212;80;21269;-63
2021/04/11 07:40:54;;;;;;;12.20;5.08;;;;;;;33.57;11.71;100266.67;1800785;77;21123;-62
2021/04/11 07:44:00;;;;;;;9.30;5.03;;;;;;;34.17;11.31;100276.17;1821111;78;21122;-60
2021/04/11 07:47:19;;;;;;;6.30;4.53;;;;;;;34.50;10.91;100270.37;1817444;78;21256;-59
2021/04/11 07:50:16;;;;;;;7.78;4.50;;;;;;;34.57;10.87;100270.33;1821930;78;21253;-61
2021/04/11 07:53:08;;;;;;;14.28;5.58;;;;;;;34.05;10.84;100267.12;1746491;81;21108;-62
2021/04/11 07:56:03;;;;;;;11.12;5.47;;;;;;;33.91;11.27;100268.86;1756638;81;21127;-62
2021/04/11 07:59:01;;;;;;;14.73;5.62;;;;;;;34.19;10.97;100269.75;1760343;81;21155;-62
2021/04/11 08:01:55;;;;;;;6.92;5.28;;;;;;;34.80;10.85;100268.29;1770884;81;21225;-61
2021/04/11 08:05:16;;;;;;;9.20;5.85;;;;;;;34.98;10.61;100270.66;1809908;79;21138;-62
2021/04/11 08:08:18;;;;;;;10.60;5.53;;;;;;;35.02;10.44;100261.45;1812473;79;21154;-63
2021/04/11 08:11:10;;;;;;;9.70;5.50;;;;;;;32.11;11.55;100254.04;1812635;78;21187;-62
2021/04/11 08:14:20;;;;;;;9.68;4.97;;;;;;;30.11;12.08;100264.60;1812449;79;21292;-62
2021/04/11 08:17:00;;;;;;;8.80;5.60;;;;;;;27.82;13.28;100258.69;1812715;79;21296;-63
2021/04/11 08:20:01;;;;;;;10.10;5.70;;;;;;;26.69;14.30;100256.20;1813095;79;21684;-62
2021/04/11 08:23:26;;;;;;;9.80;6.30;;;;;;;25.51;15.12;100251.56;1812809;79;21252;-61
2021/04/11 08:26:38;;;;;;;10.72;6.60;;;;;;;24.42;16.36;100242.16;1813011;79;21281;-63
2021/04/11 08:29:17;;;;;;;8.95;6.50;;;;;;;23.38;17.06;100232.28;1812761;79;21134;-62
2021/04/11 08:32:02;;;;;;;9.60;5.17;;;;;;;23.51;17.19;100230.25;1811440;79;21122;-62
2021/04/11 08:34:59;;;;;;;10.30;5.78;;;;;;;23.98;16.69;100234.04;1812025;79;21217;-63
2021/04/11 08:38:23;;;;;;;8.18;5.62;;;;;;;25.10;16.06;100241.25;1812936;79;21304;-60
2021/04/11 08:41:06;;;;;;;8.93;5.92;;;;;;;25.91;15.63;100225.26;1804703;79;21147;-61
2021/04/11 08:44:02;;;;;;;8.40;5.97;;;;;;;25.35;15.65;100233.98;1795276;79;21276;-62
2021/04/11 08:46:52;;;;;;;10.08;6.53;;;;;;;23.17;17.17;100233.56;1783888;79;21153;-62
2021/04/11 08:49:26;;;;;;;11.10;7.05;;;;;;;22.04;18.31;100236.87;1786583;78;21604;-62
2021/04/11 08:52:19;;;;;;;9.38;6.20;;;;;;;22.10;18.59;100219.67;1747788;80;21308;-61
2021/04/11 08:55:40;;;;;;;11.57;6.62;;;;;;;22.93;18.26;100212.98;1780488;79;21701;-63
2021/04/11 08:58:29;;;;;;;10.40;6.50;;;;;;;22.68;17.77;100212.12;1763107;80;21348;-63
2021/04/11 09:01:37;;;;;;;10.88;7.35;;;;;;;22.00;18.49;100215.45;1771742;81;21143;-63
2021/04/11 09:04:31;;;;;;;11.20;6.85;;;;;;;21.64;18.83;100208.55;1770171;80;21301;-62
2021/04/11 09:07:19;;;;;;;13.10;7.20;;;;;;;20.95;19.93;100204.17;1772361;79;21305;-63
2021/04/11 09:10:00;;;;;;;9.35;6.83;;;;;;;20.91;19.88;100204.62;1777289;79;21131;-62
2021/04/11 09:12:36;;;;;;;11.88;7.03;;;;;;;20.13;20.69;100190.97;1807313;79;21135;-63
2021/04/11 09:15:19;;;;;;;11.00;6.97;;;;;;;19.60;21.40;100186.95;1809035;79;21561;-63
2021/04/11 09:18:19;;;;;;;13.38;7.37;;;;;;;19.13;21.59;100191.54;1812972;79;21581;-63
2021/04/11 09:21:16;;;;;;;11.03;6.60;;;;;;;18.54;22.38;100177.74;1813042;79;21134;-64
2021/04/11 09:23:59;;;;;;;12.37;7.58;;;;;;;18.58;22.54;100181.24;1813386;79;21261;-63
2021/04/11 09:26:49;;;;;;;13.03;7.90;;;;;;;18.10;22.87;100180.42;1813293;79;21297;-61
2021/04/11 09:29:50;;;;;;;11.33;7.10;;;;;;;17.48;23.23;100175.11;1813441;79;21114;-62
2021/04/11 09:32:32;;;;;;;14.15;7.20;;;;;;;16.69;24.33;100172.59;1813362;79;21265;-62
2021/04/11 09:35:30;;;;;;;12.43;7.70;;;;;;;16.13;25.16;100173.49;1813330;79;21223;-62
2021/04/11 09:38:23;;;;;;;12.25;7.25;;;;;;;15.66;25.68;100173.50;1813219;79;21276;-63
2021/04/11 09:41:26;;;;;;;12.00;7.25;;;;;;;15.37;26.03;100167.58;1813208;79;21320;-63
2021/04/11 09:44:17;;;;;;;13.03;7.65;;;;;;;15.24;26.02;100161.80;1790752;79;21640;-63
2021/04/11 09:47:14;;;;;;;13.83;7.95;;;;;;;15.26;26.27;100144.45;1812932;79;21129;-64
2021/04/11 09:50:21;;;;;;;14.33;7.75;;;;;;;15.47;26.21;100162.45;1813420;79;21146;-63
2021/04/11 09:53:27;;;;;;;11.53;7.45;;;;;;;15.43;26.18;100151.16;1813435;79;21134;-63
2021/04/11 09:56:28;;;;;;;12.88;7.12;;;;;;;15.18;26.33;100150.88;1801391;79;21142;-63
2021/04/11 09:59:36;;;;;;;11.38;7.00;;;;;;;15.15;25.85;100148.25;1813486;79;21541;-63
2021/04/11 10:02:15;;;;;;;12.45;6.97;;;;;;;15.27;25.87;100142.32;1813463;79;21347;-62
2021/04/11 10:05:01;;;;;;;13.48;7.53;;;;;;;15.54;26.20;100142.15;1813582;79;21253;-63
2021/04/11 10:08:02;;;;;;;12.68;7.53;;;;;;;15.72;26.49;100130.66;1800517;79;21287;-63
2021/04/11 10:11:27;;;;;;;14.25;8.00;;;;;;;15.89;26.16;100135.13;1802478;79;21098;-63
2021/04/11 10:14:22;;;;;;;13.78;8.28;;;;;;;16.12;25.77;100138.77;1695451;83;21319;-61
2021/04/11 10:17:03;;;;;;;17.60;7.65;;;;;;;16.13;25.91;100128.82;1756522;81;21173;-64
2021/04/11 10:20:11;;;;;;;10.55;6.80;;;;;;;16.21;25.66;100136.25;1756467;81;21252;-62
2021/04/11 10:23:09;;;;;;;11.78;7.33;;;;;;;16.34;25.73;100135.03;1757971;80;21145;-62
2021/04/11 10:25:49;;;;;;;13.72;6.80;;;;;;;16.55;25.48;100136.45;1758142;81;21177;-61
2021/04/11 10:28:43;;;;;;;14.83;7.67;;;;;;;16.75;25.00;100135.69;1759691;80;21181;-62
2021/04/11 10:31:36;;;;;;;12.93;8.43;;;;;;;16.90;24.94;100137.09;1759781;80;21137;-63
2021/04/11 10:34:31;;;;;;;14.87;7.80;;;;;;;16.83;24.87;100132.71;1759778;80;21170;-62
2021/04/11 10:37:23;;;;;;;12.78;8.73;;;;;;;16.46;25.25;100140.29;1760018;80;21296;-65
2021/04/11 10:40:02;;;;;;;12.53;8.18;;;;;;;16.06;25.20;100134.40;1759785;80;21160;-62
2021/04/11 10:42:47;;;;;;;14.73;8.00;;;;;;;15.89;25.44;100147.70;1759931;80;21165;-61
2021/04/11 10:45:38;;;;;;;14.98;8.70;;;;;;;15.79;25.34;100141.55;1759789;80;21275;-63
2021/04/11 10:48:24;;;;;;;15.88;8.80;;;;;;;15.79;25.79;100129.83;1760055;80;21169;-61
2021/04/11 10:51:09;;;;;;;11.38;8.00;;;;;;;15.86;25.66;100121.66;1759852;80;21319;-62
2021/04/11 10:54:14;;;;;;;15.10;8.30;;;;;;;15.99;25.25;100125.23;1759484;81;21165;-61
2021/04/11 10:57:10;;;;;;;11.90;7.87;;;;;;;16.13;24.92;100132.73;1759965;80;21161;-62
2021/04/11 11:00:06;;;;;;;13.03;7.20;;;;;;;16.17;24.99;100114.94;1759629;80;21150;-60
2021/04/11 11:03:12;;;;;;;11.95;7.12;;;;;;;16.37;24.56;100119.41;1759595;80;21148;-60
2021/04/11 11:06:08;;;;;;;12.25;7.45;;;;;;;16.54;24.16;100122.09;1759701;80;21166;-62
2021/04/11 11:09:08;;;;;;;12.37;6.53;;;;;;;16.71;23.88;100116.13;1759549;80;21283;-64
2021/04/11 11:11:54;;;;;;;19.98;8.33;;;;;;;16.93;23.81;100109.72;1762155;78;21146;-62
2021/04/11 11:14:45;;;;;;;17.02;8.38;;;;;;;16.96;24.50;100101.90;1789440;79;21407;-63
2021/04/11 11:17:42;;;;;;;19.15;8.13;;;;;;;16.82;24.58;100110.98;1789569;79;21143;-62
2021/04/11 11:20:34;;;;;;;10.90;7.30;;;;;;;16.57;25.06;100098.23;1754055;79;21344;-62
2021/04/11 11:23:22;;;;;;;14.93;7.03;;;;;;;16.71;24.72;100107.01;1786178;79;21121;-63
2021/04/11 11:26:26;;;;;;;12.75;7.72;;;;;;;16.68;24.19;100101.75;1779235;79;21189;-62
2021/04/11 11:29:15;;;;;;;15.38;7.30;;;;;;;16.47;24.08;100101.67;1779752;79;21215;-63
2021/04/11 11:32:09;;;;;;;13.50;6.58;;;;;;;16.48;24.30;100085.16;1738307;79;21303;-62
2021/04/11 11:34:49;;;;;;;13.03;7.50;;;;;;;16.84;24.43;100097.94;1764801;79;21146;-61
2021/04/11 11:37:49;;;;;;;14.23;6.33;;;;;;;17.10;24.45;100081.95;1779813;79;21284;-62
2021/04/11 11:40:27;;;;;;;14.23;7.25;;;;;;;17.29;23.94;100094.59;1779912;79;21126;-62
2021/04/11 11:43:20;;;;;;;13.58;7.12;;;;;;;17.32;22.78;100091.98;1755975;79;21126;-62
2021/04/11 11:46:38;;;;;;;11.73;6.87;;;;;;;17.19;22.58;100089.36;1779633;79;21173;-62
2021/04/11 11:49:17;;;;;;;12.43;7.12;;;;;;;17.19;22.30;100082.39;1779897;79;21315;-63
2021/04/11 11:52:06;;;;;;;15.55;7.00;;;;;;;17.05;22.66;100087.59;1779628;79;21118;-62
2021/04/11 11:54:48;;;;;;;13.80;7.25;;;;;;;16.97;22.37;100076.28;1779910;79;21130;-61
2021/04/11 11:57:24;;;;;;;12.68;7.25;;;;;;;16.97;22.50;100073.67;1779829;80;21137;-61
2021/04/11 12:00:24;;;;;;;12.88;7.40;;;;;;;17.04;22.39;100064.97;1779878;79;21275;-62
2021/04/11 12:03:15;;;;;;;14.13;6.62;;;;;;;17.14;22.60;100058.91;1779679;80;21162;-64
2021/04/11 12:06:08;;;;;;;18.62;7.55;;;;;;;17.20;21.70;100078.05;1780009;79;21150;-63
2021/04/11 12:08:47;;;;;;;12.05;6.40;;;;;;;17.13;20.78;100067.61;1779725;79;21138;-61
2021/04/11 12:11:26;;;;;;;9.88;6.12;;;;;;;17.18;20.73;100058.49;1778485;79;21168;-63
2021/04/11 12:14:24;;;;;;;10.58;6.30;;;;;;;17.27;20.89;100051.10;1782375;80;21307;-63
2021/04/11 12:17:18;;;;;;;11.50;6.00;;;;;;;17.45;20.27;100058.94;1761148;80;21347;-61
2021/04/11 12:20:10;;;;;;;11.83;6.28;;;;;;;17.87;20.32;100054.63;1783487;80;21128;-62
2021/04/11 12:22:55;;;;;;;12.07;5.90;;;;;;;18.43;19.69;100054.92;1728589;80;21145;-62
2021/04/11 12:25:30;;;;;;;11.65;6.10;;;;;;;18.63;19.67;100052.67;1782783;80;21249;-62
2021/04/11 12:28:15;;;;;;;14.30;6.90;;;;;;;18.74;20.21;100054.79;1783263;80;21148;-60
2021/04/11 12:30:44;;;;;;;9.58;6.80;;;;;;;18.92;18.83;100052.99;1782233;80;21141;-62
2021/04/11 12:33:36;;;;;;;10.25;6.03;;;;;;;18.52;18.62;100056.66;1783034;80;21141;-62
2021/04/11 12:36:09;;;;;;;11.15;6.53;;;;;;;18.19;18.89;100044.53;1783140;80;21271;-63
2021/04/11 12:38:52;;;;;;;15.40;6.80;;;;;;;18.14;18.82;100047.59;1802068;79;21366;-59
2021/04/11 12:41:39;;;;;;;10.00;5.42;;;;;;;18.10;18.77;100045.44;1800416;79;21280;-62
2021/04/11 12:44:34;;;;;;;13.43;5.50;;;;;;;18.10;17.97;100047.19;1808081;79;21127;-61